Time;durP1;ratioP1;P1;durP2;ratioP2;P2;SDS_P1;SDS_P2;PMS_P1;PMS_P2;Temp;Humidity;BMP_temperature;BMP_pressure;BME280_temperature;BME280_humidity;BME280_pressure;Samples;Min_cycle;Max_cycle;Signal;HPM_P1;HPM_P2
2021/07/19 00:01:04;;;;;;;;;9.25;9.00;;;;;27.27;46.14;101260.09;5062693;28;66107;-79
2021/07/19 00:03:30;;;;;;;;;9.50;9.00;;;;;27.27;46.16;101256.53;5047077;28;45244;-79
2021/07/19 00:05:55;;;;;;;;;12.00;10.50;;;;;27.30;46.15;101262.63;5081615;27;45489;-79
2021/07/19 00:08:20;;;;;;;;;9.75;8.75;;;;;27.27;46.02;101260.09;5081469;27;45977;-78
2021/07/19 00:10:46;;;;;;;;;10.75;10.00;;;;;27.25;46.44;101261.13;5063059;28;53698;-78
2021/07/19 00:13:12;;;;;;;;;10.00;10.00;;;;;27.24;46.53;101259.41;5063529;28;45485;-80
2021/07/19 00:15:37;;;;;;;;;10.75;9.00;;;;;27.17;45.89;101250.81;5079797;28;61133;-80
2021/07/19 00:18:02;;;;;;;;;10.75;10.00;;;;;27.18;46.49;101257.03;5063533;28;46323;-81
2021/07/19 00:20:28;;;;;;;;;9.50;9.00;;;;;27.17;46.01;101257.97;5079998;28;45448;-77
2021/07/19 00:22:53;;;;;;;;;10.25;7.75;;;;;27.19;46.35;101258.75;5080243;28;45346;-77
2021/07/19 00:25:19;;;;;;;;;8.50;8.50;;;;;27.19;46.56;101270.38;5079947;28;45545;-78
2021/07/19 00:27:45;;;;;;;;;12.00;10.00;;;;;27.20;46.36;101263.19;5079781;27;46682;-79
2021/07/19 00:30:11;;;;;;;;;9.75;9.00;;;;;27.22;46.24;101272.88;5080006;28;45437;-78
2021/07/19 00:32:37;;;;;;;;;10.00;9.25;;;;;27.15;46.52;101255.38;5081490;27;45349;-78
2021/07/19 00:35:04;;;;;;;;;10.25;9.25;;;;;27.20;46.73;101263.19;5081099;27;45465;-78
2021/07/19 00:37:29;;;;;;;;;8.75;7.75;;;;;27.20;46.45;101273.91;5080821;27;45197;-77
2021/07/19 00:39:54;;;;;;;;;9.75;9.75;;;;;27.12;46.57;101260.91;5079391;28;59846;-77
2021/07/19 00:42:20;;;;;;;;;10.00;9.75;;;;;27.15;46.85;101257.19;5061426;28;55198;-77
2021/07/19 00:44:45;;;;;;;;;11.75;11.75;;;;;27.17;46.55;101269.56;5081089;27;45222;-76
2021/07/19 00:47:10;;;;;;;;;8.25;8.25;;;;;27.16;46.78;101275.88;5079731;28;45222;-77
2021/07/19 00:49:39;;;;;;;;;11.00;10.00;;;;;27.12;46.67;101263.59;5062305;28;61944;-75
2021/07/19 00:52:05;;;;;;;;;9.50;9.25;;;;;27.15;46.84;101265.22;5046191;28;45409;-75
2021/07/19 00:54:30;;;;;;;;;9.75;9.50;;;;;27.10;47.16;101259.22;5062615;28;45435;-75
2021/07/19 00:56:56;;;;;;;;;9.25;8.50;;;;;27.12;47.14;101263.59;5045952;28;46811;-75
2021/07/19 00:59:23;;;;;;;;;10.00;10.00;;;;;27.11;47.05;101261.84;5062513;28;45209;-76
2021/07/19 01:01:48;;;;;;;;;11.50;10.00;;;;;27.09;47.67;101266.41;5062880;28;45317;-76
2021/07/19 01:04:15;;;;;;;;;8.75;8.25;;;;;27.08;47.47;101258.44;5045812;28;45482;-77
2021/07/19 01:06:41;;;;;;;;;11.75;10.75;;;;;27.02;47.16;101247.09;5062308;27;47374;-77
2021/07/19 01:09:06;;;;;;;;;11.75;11.25;;;;;27.03;47.06;101245.31;5062532;28;45231;-76
2021/07/19 01:11:32;;;;;;;;;10.50;10.50;;;;;26.99;47.33;101241.88;5079653;27;45476;-76
2021/07/19 01:13:58;;;;;;;;;10.00;9.50;;;;;27.03;47.28;101250.66;5062050;28;45525;-76
2021/07/19 01:16:23;;;;;;;;;13.50;12.00;;;;;27.03;47.59;101251.53;5092012;27;45773;-76
2021/07/19 01:18:49;;;;;;;;;11.25;11.25;;;;;27.02;47.14;101252.44;5061785;28;45263;-76
2021/07/19 01:21:17;;;;;;;;;13.50;12.75;;;;;27.05;47.67;101251.44;5062499;28;45488;-76
2021/07/19 01:24:12;;;;;;;;;11.00;11.00;;;;;27.05;47.43;101256.81;5078772;27;45614;-76
2021/07/19 01:27:05;;;;;;;;;14.00;12.75;;;;;27.03;47.26;101238.13;5080276;28;45961;-78
2021/07/19 01:29:30;;;;;;;;;15.00;12.25;;;;;26.99;47.05;101244.53;5080299;28;45412;-78
2021/07/19 01:31:56;;;;;;;;;9.00;9.00;;;;;27.03;47.21;101256.88;5062741;28;45409;-78
2021/07/19 01:34:23;;;;;;;;;9.75;9.75;;;;;27.01;47.12;101249.81;5045204;28;45571;-77
2021/07/19 01:36:53;;;;;;;;;11.00;9.75;;;;;26.98;47.35;101247.31;5062271;28;46470;-78
2021/07/19 01:39:19;;;;;;;;;10.00;10.00;;;;;26.94;47.47;101243.06;5079083;28;45251;-78
2021/07/19 01:41:44;;;;;;;;;12.00;11.50;;;;;26.94;47.73;101235.91;5062396;28;45313;-78
2021/07/19 01:44:12;;;;;;;;;9.00;9.00;;;;;26.91;47.45;101229.81;5062081;28;45538;-80
2021/07/19 01:46:37;;;;;;;;;9.25;9.25;;;;;26.93;47.72;101238.63;5062359;28;45277;-81
2021/07/19 01:49:04;;;;;;;;;11.50;11.50;;;;;26.97;47.82;101245.59;5045033;28;45444;-80
2021/07/19 01:51:29;;;;;;;;;12.50;11.50;;;;;26.88;47.48;101228.16;5041902;28;45291;-80
2021/07/19 01:53:55;;;;;;;;;13.00;11.00;;;;;26.92;47.54;101240.44;5059386;28;45589;-81
2021/07/19 01:56:20;;;;;;;;;13.00;11.25;;;;;26.89;47.70;101240.59;5065310;28;47332;-80
2021/07/19 01:58:46;;;;;;;;;13.75;10.00;;;;;26.93;48.14;101241.31;5065489;28;45349;-78
2021/07/19 02:01:12;;;;;;;;;10.25;10.25;;;;;26.92;47.74;101243.13;5065695;28;45534;-78
2021/07/19 02:03:37;;;;;;;;;10.50;10.50;;;;;26.94;47.97;101251.09;5048565;28;45434;-77
2021/07/19 02:06:05;;;;;;;;;11.75;11.00;;;;;26.88;48.46;101229.97;5065299;28;47897;-77
2021/07/19 02:08:31;;;;;;;;;12.75;12.00;;;;;26.88;47.75;101240.69;5048624;28;45428;-77
2021/07/19 02:10:56;;;;;;;;;11.25;10.00;;;;;26.91;48.32;101246.75;5065449;28;45436;-77
2021/07/19 02:13:23;;;;;;;;;10.75;10.75;;;;;26.90;48.00;101238.78;5082083;28;45183;-77
2021/07/19 02:15:49;;;;;;;;;11.75;11.00;;;;;26.87;48.32;101237.16;5078691;28;48209;-79
2021/07/19 02:18:15;;;;;;;;;12.00;12.00;;;;;26.91;48.33;101243.19;5093122;27;45317;-78
2021/07/19 02:20:41;;;;;;;;;14.75;11.75;;;;;26.90;48.20;101241.47;5053775;28;45447;-80
2021/07/19 02:23:06;;;;;;;;;13.50;11.00;;;;;26.85;48.44;101232.81;5064981;28;45263;-79
2021/07/19 02:25:33;;;;;;;;;13.00;12.25;;;;;26.89;48.51;101240.59;5048460;28;47137;-79
2021/07/19 02:27:58;;;;;;;;;11.75;10.00;;;;;26.83;48.19;101230.19;5081972;28;45461;-76
2021/07/19 02:30:24;;;;;;;;;12.00;10.75;;;;;26.80;48.10;101234.84;5048527;28;45496;-76
2021/07/19 02:32:51;;;;;;;;;15.75;13.75;;;;;26.77;48.97;101230.53;5064867;28;45394;-76
2021/07/19 02:35:16;;;;;;;;;11.50;11.50;;;;;26.80;48.42;101242.88;5048175;28;47235;-76
2021/07/19 02:37:42;;;;;;;;;11.00;11.00;;;;;26.82;48.70;101254.38;5064599;28;45244;-76
2021/07/19 02:40:09;;;;;;;;;13.25;12.00;;;;;26.82;48.81;101254.38;5065386;28;45213;-76
2021/07/19 02:42:40;;;;;;;;;15.00;12.75;;;;;26.78;48.38;101253.69;5064928;28;45263;-78
2021/07/19 02:45:07;;;;;;;;;13.25;12.00;;;;;26.80;48.63;101258.97;5048347;28;47160;-77
2021/07/19 02:47:32;;;;;;;;;12.25;12.00;;;;;26.76;48.72;101251.09;5064576;28;45292;-77
2021/07/19 02:49:58;;;;;;;;;11.75;10.75;;;;;26.75;48.59;101245.78;5064908;28;45331;-77
2021/07/19 02:52:23;;;;;;;;;12.00;10.25;;;;;26.78;48.24;101253.69;5047554;28;45283;-77
2021/07/19 02:54:49;;;;;;;;;12.50;12.50;;;;;26.75;48.98;101256.50;5047840;28;46747;-77
2021/07/19 02:57:14;;;;;;;;;12.50;12.50;;;;;26.75;48.59;101254.69;5063997;28;65636;-77
2021/07/19 02:59:40;;;;;;;;;12.50;12.50;;;;;26.75;48.84;101248.47;5081657;28;45321;-77
2021/07/19 03:02:05;;;;;;;;;13.00;11.00;;;;;26.72;48.93;101248.63;5081344;28;59745;-78
2021/07/19 03:04:30;;;;;;;;;12.00;11.75;;;;;26.71;48.97;101244.22;5080274;28;46163;-79
2021/07/19 03:06:57;;;;;;;;;13.00;12.75;;;;;26.72;49.18;101237.91;5064105;28;53453;-75
2021/07/19 03:09:22;;;;;;;;;11.00;9.75;;;;;26.72;49.50;101249.50;5081679;28;45346;-75
2021/07/19 03:11:49;;;;;;;;;14.00;13.25;;;;;26.77;48.79;101250.13;5047089;28;63456;-75
2021/07/19 03:14:17;;;;;;;;;12.25;11.25;;;;;26.77;49.19;101250.13;5060891;28;47963;-75
2021/07/19 03:16:44;;;;;;;;;10.25;10.25;;;;;26.73;48.88;101243.19;5076200;28;45453;-75
2021/07/19 03:19:12;;;;;;;;;11.50;11.00;;;;;26.73;49.04;101247.69;5044169;28;45382;-75
2021/07/19 03:21:38;;;;;;;;;10.25;10.25;;;;;26.72;48.86;101246.81;5092829;27;45308;-75
2021/07/19 03:24:04;;;;;;;;;11.00;11.00;;;;;26.68;49.23;101245.25;5064004;28;48251;-74
2021/07/19 03:26:29;;;;;;;;;12.25;11.50;;;;;26.65;49.77;101242.69;5065266;28;45441;-83
2021/07/19 03:28:55;;;;;;;;;12.75;11.75;;;;;26.64;50.03;101243.66;5064694;28;45462;-78
2021/07/19 03:31:21;;;;;;;;;12.75;10.75;;;;;26.68;50.30;101249.75;5064161;28;45343;-81
2021/07/19 03:33:46;;;;;;;;;10.50;10.50;;;;;26.69;49.88;101248.78;5047362;28;47287;-76
2021/07/19 03:36:12;;;;;;;;;13.00;12.00;;;;;26.69;50.24;101246.13;5044930;28;45421;-79
2021/07/19 03:38:38;;;;;;;;;11.75;11.75;;;;;26.68;49.98;101236.34;5079996;27;45488;-76
2021/07/19 03:41:04;;;;;;;;;9.75;9.75;;;;;26.69;50.39;101243.44;5079829;28;59634;-75
2021/07/19 03:43:31;;;;;;;;;12.75;11.75;;;;;26.69;50.05;101238.06;5080826;28;45490;-75
2021/07/19 03:45:56;;;;;;;;;11.00;10.00;;;;;26.65;50.15;101229.31;5082168;27;45512;-74
2021/07/19 03:48:22;;;;;;;;;13.00;12.25;;;;;26.59;50.55;101218.06;5080592;28;53429;-78
2021/07/19 03:50:48;;;;;;;;;11.50;11.25;;;;;26.62;50.11;101221.44;5063323;28;52159;-79
2021/07/19 03:53:13;;;;;;;;;14.25;12.50;;;;;26.66;50.30;101224.81;5063753;28;46483;-76
2021/07/19 03:55:39;;;;;;;;;14.75;13.00;;;;;26.59;49.93;101218.94;5081944;27;45309;-82
2021/07/19 03:58:04;;;;;;;;;11.75;11.75;;;;;26.62;50.05;101225.94;5063881;28;45476;-82
2021/07/19 04:00:30;;;;;;;;;13.75;13.75;;;;;26.58;50.48;101229.69;5062780;28;64903;-83
2021/07/19 04:02:55;;;;;;;;;12.50;12.50;;;;;26.56;50.57;101226.22;5046946;28;47214;-82
2021/07/19 04:05:21;;;;;;;;;12.50;12.00;;;;;26.57;50.27;101233.31;5063685;28;45375;-83
2021/07/19 04:07:47;;;;;;;;;13.75;12.50;;;;;26.54;49.93;101223.63;5080972;28;45258;-87
2021/07/19 04:10:18;;;;;;;;;15.00;13.50;;;;;26.50;49.95;101219.41;5064122;28;45443;-86
2021/07/19 04:12:48;;;;;;;;;11.50;11.50;;;;;26.52;50.19;101222.00;5064740;28;47139;-86
2021/07/19 04:15:13;;;;;;;;;13.25;11.75;;;;;26.45;50.20;101222.28;5048307;28;45362;-85
2021/07/19 04:17:39;;;;;;;;;14.25;13.00;;;;;26.47;49.78;101232.91;5064040;28;45308;-84
2021/07/19 04:20:07;;;;;;;;;12.00;11.25;;;;;26.41;49.67;101218.03;5063610;28;45246;-85
2021/07/19 04:22:33;;;;;;;;;12.25;11.00;;;;;26.44;49.49;101225.91;5063518;28;47411;-83
2021/07/19 04:24:58;;;;;;;;;14.50;12.50;;;;;26.41;49.77;101222.50;5063160;28;45264;-83
2021/07/19 04:27:24;;;;;;;;;10.25;10.25;;;;;26.43;50.29;101223.31;5045847;28;55143;-83
2021/07/19 04:29:50;;;;;;;;;13.00;11.75;;;;;26.37;49.92;101218.22;5046100;28;59994;-84
2021/07/19 04:32:18;;;;;;;;;14.00;13.00;;;;;26.37;50.00;101220.88;5063231;28;47099;-80
2021/07/19 04:34:43;;;;;;;;;12.00;12.00;;;;;26.39;49.99;101222.56;5079919;28;45329;-80
2021/07/19 04:37:09;;;;;;;;;12.00;12.00;;;;;26.35;49.55;101217.44;5062595;28;54767;-80
2021/07/19 04:39:36;;;;;;;;;12.25;11.25;;;;;26.37;49.65;101229.78;5079983;28;45607;-80
2021/07/19 04:42:02;;;;;;;;;13.00;12.00;;;;;26.36;49.54;101229.88;5081228;27;46223;-80
2021/07/19 04:44:28;;;;;;;;;13.75;13.00;;;;;26.30;49.96;101222.13;5062858;28;45433;-81
2021/07/19 04:46:54;;;;;;;;;11.25;11.25;;;;;26.30;50.57;101223.00;5063252;28;45828;-82
2021/07/19 04:49:20;;;;;;;;;11.00;11.00;;;;;26.30;49.87;101223.00;5079870;27;45538;-81
2021/07/19 04:51:46;;;;;;;;;12.50;11.00;;;;;26.31;50.16;101219.38;5062539;28;47218;-81
2021/07/19 04:54:11;;;;;;;;;12.75;12.75;;;;;26.32;50.65;101217.56;5079995;28;45677;-81
2021/07/19 04:56:37;;;;;;;;;11.50;11.50;;;;;26.36;50.13;101219.16;5062966;28;45243;-81
2021/07/19 04:59:03;;;;;;;;;12.75;12.50;;;;;26.40;50.45;101226.97;5062560;28;45311;-76
2021/07/19 05:01:28;;;;;;;;;17.00;13.75;;;;;26.41;49.68;101226.06;5062670;28;46415;-77
2021/07/19 05:03:54;;;;;;;;;11.50;11.50;;;;;26.46;50.63;101232.03;5078935;28;63729;-75
2021/07/19 05:06:19;;;;;;;;;15.50;13.50;;;;;26.50;50.53;101232.78;5079514;28;45270;-75
2021/07/19 05:08:46;;;;;;;;;14.00;13.50;;;;;26.52;49.34;101233.56;5079044;28;57851;-75
2021/07/19 05:11:11;;;;;;;;;11.25;10.25;;;;;26.52;50.22;101236.25;5081472;27;46174;-72
2021/07/19 05:13:37;;;;;;;;;11.50;10.00;;;;;26.59;50.38;101235.00;5079373;28;58105;-70
2021/07/19 05:16:02;;;;;;;;;15.25;14.25;;;;;26.64;50.10;101235.63;5096830;27;45330;-73
2021/07/19 05:18:30;;;;;;;;;14.50;14.25;;;;;26.63;49.83;101238.38;5080654;27;45425;-76
2021/07/19 05:20:55;;;;;;;;;10.75;10.25;;;;;26.68;50.36;101237.22;5079402;28;46177;-76
2021/07/19 05:23:22;;;;;;;;;16.50;13.00;;;;;26.73;49.76;101245.00;5078919;28;45440;-75
2021/07/19 05:25:47;;;;;;;;;14.75;14.00;;;;;26.74;49.92;101227.97;5081015;28;45220;-76
2021/07/19 05:28:13;;;;;;;;;12.75;11.50;;;;;26.80;49.39;101249.13;5077793;28;57848;-74
2021/07/19 05:30:43;;;;;;;;;13.00;13.00;;;;;26.81;49.51;101234.78;5062453;28;46210;-75
2021/07/19 05:33:09;;;;;;;;;12.50;12.00;;;;;26.85;49.19;101239.03;5045542;28;45365;-75
2021/07/19 05:35:35;;;;;;;;;13.00;12.50;;;;;26.85;48.53;101235.50;5043307;28;45406;-75
2021/07/19 05:38:00;;;;;;;;;12.75;11.50;;;;;26.82;48.52;101241.00;5077994;28;45406;-76
2021/07/19 05:40:26;;;;;;;;;15.00;14.25;;;;;26.83;48.74;101243.59;5080176;27;45424;-82
2021/07/19 05:42:51;;;;;;;;;13.50;12.00;;;;;26.80;48.25;101243.75;5061891;28;45370;-72
2021/07/19 05:45:17;;;;;;;;;13.00;12.75;;;;;26.80;48.38;101240.22;5080610;27;45956;-72
2021/07/19 05:47:43;;;;;;;;;16.00;14.00;;;;;26.81;48.40;101245.47;5078980;28;45241;-72
2021/07/19 05:50:09;;;;;;;;;14.00;14.00;;;;;26.82;48.66;101257.06;5080144;27;45323;-73
2021/07/19 05:52:34;;;;;;;;;11.75;11.75;;;;;26.84;48.26;101248.00;5078604;28;45211;-73
2021/07/19 05:55:00;;;;;;;;;14.75;13.75;;;;;26.85;48.73;101244.41;5061703;28;55504;-74
2021/07/19 05:57:26;;;;;;;;;13.50;12.50;;;;;26.87;47.98;101245.19;5078690;28;45415;-74
2021/07/19 05:59:56;;;;;;;;;14.50;13.75;;;;;26.89;48.04;101253.13;5061893;28;45398;-74
2021/07/19 06:02:21;;;;;;;;;15.25;14.00;;;;;26.89;47.92;101242.44;5079927;28;45380;-74
2021/07/19 06:04:47;;;;;;;;;14.75;14.75;;;;;26.89;47.67;101248.66;5080153;27;45330;-74
2021/07/19 06:07:12;;;;;;;;;14.25;14.00;;;;;26.87;47.88;101242.50;5078355;28;45565;-74
2021/07/19 06:09:38;;;;;;;;;13.75;13.50;;;;;26.87;47.69;101236.28;5080014;27;45275;-74
2021/07/19 06:12:03;;;;;;;;;14.50;13.50;;;;;26.84;47.25;101236.41;5077736;28;64729;-74
2021/07/19 06:14:29;;;;;;;;;14.00;12.75;;;;;26.82;47.60;101236.50;5078347;28;45254;-72
2021/07/19 06:16:54;;;;;;;;;16.25;15.00;;;;;26.83;47.54;101237.38;5078063;28;58553;-75
2021/07/19 06:19:19;;;;;;;;;13.75;12.50;;;;;26.85;47.32;101246.22;5071828;27;56959;-75
2021/07/19 06:21:45;;;;;;;;;14.50;14.50;;;;;26.87;47.78;101245.19;5094871;27;52059;-75
2021/07/19 06:24:10;;;;;;;;;14.00;13.00;;;;;26.86;47.38;101246.13;5077876;28;59425;-74
2021/07/19 06:26:36;;;;;;;;;7.25;5.25;;;;;26.88;47.07;101246.06;5079263;27;56362;-74
2021/07/19 06:29:01;;;;;;;;;15.00;14.25;;;;;26.89;47.21;101242.44;5078049;28;47050;-74
2021/07/19 06:31:26;;;;;;;;;13.75;13.75;;;;;26.89;47.15;101240.59;5044091;28;60821;-73
2021/07/19 06:33:52;;;;;;;;;13.50;13.25;;;;;26.85;47.05;101247.09;5061041;28;62207;-73
2021/07/19 06:36:17;;;;;;;;;18.00;16.00;;;;;26.83;47.29;101243.59;5061084;28;47011;-73
2021/07/19 06:38:43;;;;;;;;;14.00;13.75;;;;;26.88;47.07;101236.19;5062496;28;45869;-74
2021/07/19 06:41:11;;;;;;;;;13.75;13.25;;;;;26.91;47.41;101240.53;5081156;28;59424;-75
2021/07/19 06:43:37;;;;;;;;;16.75;15.75;;;;;26.95;47.00;101242.97;5083363;27;45317;-74
2021/07/19 06:46:02;;;;;;;;;15.00;12.75;;;;;26.97;46.94;101241.09;5082946;27;45569;-75
2021/07/19 06:48:28;;;;;;;;;17.00;13.25;;;;;26.98;47.12;101234.78;5078266;28;57593;-75
2021/07/19 06:50:53;;;;;;;;;17.00;13.50;;;;;26.99;47.09;101233.84;5080189;28;60892;-74
2021/07/19 06:53:19;;;;;;;;;12.50;12.25;;;;;27.04;46.61;101236.31;5061211;28;45261;-74
2021/07/19 06:55:44;;;;;;;;;16.00;14.25;;;;;27.08;47.18;101231.66;5078613;28;45512;-73
2021/07/19 06:58:09;;;;;;;;;14.50;13.50;;;;;27.07;47.23;101235.28;5082627;27;45295;-73
2021/07/19 07:00:35;;;;;;;;;17.50;14.00;;;;;27.10;46.89;101235.13;5081426;28;45308;-73
2021/07/19 07:03:00;;;;;;;;;14.75;12.25;;;;;27.13;47.21;101232.31;5083128;28;45295;-73
2021/07/19 07:05:26;;;;;;;;;15.00;14.00;;;;;27.14;47.16;101231.34;5082549;27;45526;-73
2021/07/19 07:07:51;;;;;;;;;13.00;11.75;;;;;27.16;47.24;101229.44;5081712;27;64841;-73
2021/07/19 07:10:17;;;;;;;;;15.50;14.00;;;;;27.19;46.50;101229.28;5063214;28;45244;-72
2021/07/19 07:12:43;;;;;;;;;14.75;14.00;;;;;27.16;46.54;101221.41;5081005;27;45392;-70
2021/07/19 07:15:09;;;;;;;;;13.50;13.00;;;;;27.19;46.41;101226.59;5082190;27;45494;-71
2021/07/19 07:17:34;;;;;;;;;15.75;14.00;;;;;27.20;46.99;101231.03;5080999;28;45308;-71
2021/07/19 07:20:00;;;;;;;;;18.75;16.00;;;;;27.20;46.18;101231.91;5080876;28;45448;-71
2021/07/19 07:22:25;;;;;;;;;17.50;16.00;;;;;27.21;46.63;101222.06;5082420;27;45306;-72
2021/07/19 07:24:51;;;;;;;;;17.25;16.75;;;;;27.21;46.35;101230.97;5081387;27;59357;-74
2021/07/19 07:27:19;;;;;;;;;17.00;14.75;;;;;27.22;46.79;101234.50;5082199;27;45342;-76
2021/07/19 07:29:44;;;;;;;;;17.75;15.75;;;;;27.21;47.00;101227.41;5080413;28;45312;-77
2021/07/19 07:32:10;;;;;;;;;15.00;15.00;;;;;27.23;47.42;101217.47;5082124;27;45854;-77
2021/07/19 07:34:35;;;;;;;;;16.00;14.50;;;;;27.29;47.44;101230.56;5081509;27;56054;-84
2021/07/19 07:37:01;;;;;;;;;13.00;12.25;;;;;27.30;47.13;101219.75;5060647;28;55162;-83
2021/07/19 07:39:26;;;;;;;;;14.00;14.00;;;;;27.32;47.12;101215.16;5063552;28;45267;-82
2021/07/19 07:41:52;;;;;;;;;13.50;12.75;;;;;27.40;47.42;101221.94;5047193;28;45462;-83
2021/07/19 07:44:17;;;;;;;;;11.75;11.75;;;;;27.43;47.16;101225.31;5046806;28;45516;-82
2021/07/19 07:46:43;;;;;;;;;15.50;14.75;;;;;27.47;46.47;101226.91;5080168;28;59650;-85
2021/07/19 07:49:08;;;;;;;;;18.75;14.25;;;;;27.48;46.00;101225.06;5046799;28;45280;-83
2021/07/19 07:51:34;;;;;;;;;14.75;13.75;;;;;27.51;45.86;101228.44;5062967;28;45497;-82
2021/07/19 07:53:59;;;;;;;;;14.00;12.25;;;;;27.55;46.37;101226.50;5062507;28;45321;-84
2021/07/19 07:56:26;;;;;;;;;12.75;12.00;;;;;27.55;45.85;101229.16;5063868;28;48500;-85
2021/07/19 07:58:51;;;;;;;;;13.75;13.75;;;;;27.58;46.16;101234.34;5063655;28;45432;-82
2021/07/19 08:01:16;;;;;;;;;12.25;11.00;;;;;27.56;45.53;101218.34;5046339;28;45324;-79
2021/07/19 08:03:42;;;;;;;;;14.50;13.50;;;;;27.57;45.08;101220.09;5046817;28;45484;-78
2021/07/19 08:06:07;;;;;;;;;13.75;13.50;;;;;27.59;45.35;101218.19;5081387;27;52437;-79
2021/07/19 08:08:33;;;;;;;;;12.50;11.50;;;;;27.58;44.96;101211.09;5046423;28;47298;-79
2021/07/19 08:10:58;;;;;;;;;15.75;12.50;;;;;27.63;45.39;101218.00;5063239;28;45286;-80
2021/07/19 08:13:24;;;;;;;;;11.25;11.25;;;;;27.65;44.79;101222.34;5062792;28;54429;-80
2021/07/19 08:15:49;;;;;;;;;11.00;11.00;;;;;27.64;44.28;101211.72;5096436;27;63859;-81
2021/07/19 08:18:15;;;;;;;;;13.25;12.25;;;;;27.66;44.88;101220.53;5060640;28;45339;-80
2021/07/19 08:20:41;;;;;;;;;11.75;10.75;;;;;27.64;43.31;101215.25;5068675;28;45401;-83
2021/07/19 08:23:07;;;;;;;;;11.25;9.75;;;;;27.61;42.66;101210.91;5046236;28;45662;-79
2021/07/19 08:25:32;;;;;;;;;10.25;10.25;;;;;27.64;42.65;101214.41;5045300;28;71340;-78
2021/07/19 08:27:58;;;;;;;;;13.25;9.25;;;;;27.63;43.28;101209.97;5081055;27;45320;-76
2021/07/19 08:30:23;;;;;;;;;13.25;10.25;;;;;27.63;43.29;101207.28;5079386;28;55210;-80
2021/07/19 08:32:48;;;;;;;;;9.75;9.00;;;;;27.66;43.11;101213.38;5062895;28;45441;-80
2021/07/19 08:35:14;;;;;;;;;10.50;10.50;;;;;27.66;42.52;101218.75;5079783;28;46399;-79
2021/07/19 08:37:40;;;;;;;;;10.50;10.50;;;;;27.65;42.67;101211.63;5062459;28;45423;-80
2021/07/19 08:40:07;;;;;;;;;10.00;8.25;;;;;27.69;42.34;101220.41;5063231;28;45289;-80
2021/07/19 08:42:33;;;;;;;;;12.50;9.00;;;;;27.65;42.25;101211.63;5079266;28;45483;-82
2021/07/19 08:44:59;;;;;;;;;10.00;8.25;;;;;27.69;42.22;101215.03;5081040;28;46324;-79
2021/07/19 08:47:24;;;;;;;;;8.00;8.00;;;;;27.65;42.04;101213.44;5079464;28;45330;-79
2021/07/19 08:49:50;;;;;;;;;9.25;9.25;;;;;27.70;42.21;101214.94;5079882;28;45994;-79
2021/07/19 08:52:16;;;;;;;;;10.00;7.75;;;;;27.69;42.42;101215.03;5079008;28;45451;-77
2021/07/19 08:54:42;;;;;;;;;12.25;10.50;;;;;27.74;42.20;101218.34;5062916;28;46455;-80
2021/07/19 08:57:07;;;;;;;;;9.00;9.00;;;;;27.70;41.80;101206.88;5062552;28;45560;-80
2021/07/19 08:59:32;;;;;;;;;8.25;7.50;;;;;27.71;42.16;101205.94;5062671;28;51018;-80
2021/07/19 09:02:01;;;;;;;;;8.00;8.00;;;;;27.75;41.51;101212.88;5062118;28;45387;-78
2021/07/19 09:04:26;;;;;;;;;8.00;7.75;;;;;27.76;41.24;101211.06;5062942;28;46021;-78
2021/07/19 09:06:52;;;;;;;;;9.25;8.00;;;;;27.71;41.30;101205.06;5079047;28;45377;-79
2021/07/19 09:09:30;;;;;;;;;9.00;8.50;;;;;27.75;40.88;101212.03;5079615;28;45421;-79
2021/07/19 09:11:56;;;;;;;;;9.75;9.25;;;;;27.73;41.00;101204.06;5062477;28;45256;-78
2021/07/19 09:14:22;;;;;;;;;10.25;10.00;;;;;27.74;41.34;101202.25;5079036;28;45293;-83
2021/07/19 09:16:48;;;;;;;;;8.75;8.50;;;;;27.77;41.23;101200.25;5078963;28;57867;-83
2021/07/19 09:19:15;;;;;;;;;8.25;6.00;;;;;27.81;41.50;101203.66;5062337;28;45330;-80
2021/07/19 09:21:42;;;;;;;;;12.25;9.50;;;;;27.81;41.17;101201.81;5079667;27;45397;-81
2021/07/19 09:24:09;;;;;;;;;10.25;9.50;;;;;27.80;41.37;101194.72;5061899;27;48477;-81
2021/07/19 09:26:35;;;;;;;;;6.50;6.50;;;;;27.80;41.16;101194.72;5061967;28;45234;-79
2021/07/19 09:29:02;;;;;;;;;8.00;7.25;;;;;27.82;41.24;101197.31;5062404;28;45335;-77
2021/07/19 09:31:32;;;;;;;;;10.25;8.25;;;;;27.80;40.62;101196.53;5079209;28;45271;-78
2021/07/19 09:33:58;;;;;;;;;8.50;8.50;;;;;27.83;40.25;101213.31;5061825;28;47271;-79
2021/07/19 09:36:27;;;;;;;;;8.75;8.25;;;;;27.78;40.10;101196.59;5078922;28;45290;-81
2021/07/19 09:39:08;;;;;;;;;8.50;8.00;;;;;27.83;39.64;101199.06;5062863;28;45425;-80
2021/07/19 09:41:35;;;;;;;;;10.50;9.00;;;;;27.83;40.45;101199.91;5061908;28;45338;-82
2021/07/19 09:44:07;;;;;;;;;12.25;12.00;;;;;27.82;40.60;101197.31;5044807;28;47995;-81
2021/07/19 09:46:33;;;;;;;;;7.75;7.00;;;;;27.84;39.68;101195.41;5062799;28;45529;-79
2021/07/19 09:48:59;;;;;;;;;11.00;9.00;;;;;27.82;40.13;101191.97;5079062;28;45304;-77
2021/07/19 09:51:30;;;;;;;;;7.00;7.00;;;;;27.84;39.93;101190.06;5078389;28;45211;-77
2021/07/19 09:53:56;;;;;;;;;7.25;5.50;;;;;27.83;39.88;101189.19;5078677;28;47503;-79
2021/07/19 09:56:24;;;;;;;;;7.50;7.00;;;;;27.81;39.87;101185.72;5061509;28;45428;-79
2021/07/19 09:59:03;;;;;;;;;10.75;9.00;;;;;27.82;40.18;101183.91;5062188;28;45339;-78
2021/07/19 10:01:34;;;;;;;;;9.75;8.50;;;;;27.83;40.43;101182.97;5062851;28;45422;-81
2021/07/19 10:04:10;;;;;;;;;8.00;8.00;;;;;27.88;40.46;101187.09;5078389;28;45242;-80
2021/07/19 10:06:37;;;;;;;;;14.75;11.00;;;;;27.88;39.87;101184.41;5078547;28;45380;-78
2021/07/19 10:09:05;;;;;;;;;10.75;10.00;;;;;27.87;40.53;101176.44;5078597;28;45318;-75
2021/07/19 10:11:32;;;;;;;;;9.50;8.00;;;;;27.88;40.22;101183.53;5061946;28;45505;-79
2021/07/19 10:13:57;;;;;;;;;9.00;8.75;;;;;27.86;39.87;101178.28;5062672;28;47312;-76
2021/07/19 10:16:27;;;;;;;;;9.00;8.50;;;;;27.91;39.90;101179.84;5083338;27;45245;-75
2021/07/19 10:18:53;;;;;;;;;9.25;9.25;;;;;27.89;39.98;101177.25;5062286;28;45488;-77
2021/07/19 10:21:19;;;;;;;;;10.00;10.00;;;;;27.91;39.91;101186.09;5070829;28;45503;-76
2021/07/19 10:23:44;;;;;;;;;10.00;9.50;;;;;27.90;40.17;101187.03;5082340;28;45357;-76
2021/07/19 10:26:11;;;;;;;;;9.25;9.25;;;;;27.91;39.85;101178.03;5064281;28;51368;-77
2021/07/19 10:28:37;;;;;;;;;10.75;9.75;;;;;27.93;39.90;101175.25;5064793;28;45406;-79
2021/07/19 10:31:02;;;;;;;;;12.25;9.75;;;;;27.91;39.70;101171.81;5081983;28;45494;-79
2021/07/19 10:33:28;;;;;;;;;11.00;11.00;;;;;27.94;39.54;101183.22;5064592;28;46153;-80
2021/07/19 10:35:57;;;;;;;;;12.75;12.00;;;;;27.96;40.03;101177.75;5081662;28;45642;-78
2021/07/19 10:38:25;;;;;;;;;11.25;11.00;;;;;27.93;39.78;101159.16;5064753;28;45284;-79
2021/07/19 10:40:52;;;;;;;;;11.50;11.00;;;;;27.97;40.08;101171.44;5081743;28;45516;-77
2021/07/19 10:43:17;;;;;;;;;11.00;9.75;;;;;27.95;40.36;101171.53;5064896;28;45317;-78
2021/07/19 10:45:53;;;;;;;;;11.75;10.50;;;;;27.96;39.60;101161.66;5080711;28;61454;-78
2021/07/19 10:48:25;;;;;;;;;12.50;11.75;;;;;27.96;39.84;101161.66;5081881;28;45435;-78
2021/07/19 10:50:51;;;;;;;;;8.75;8.75;;;;;27.98;39.95;101155.28;5081365;28;45409;-78
2021/07/19 10:53:21;;;;;;;;;11.75;10.50;;;;;28.02;40.07;101162.19;5082384;28;45437;-79
2021/07/19 10:56:00;;;;;;;;;9.75;9.75;;;;;28.04;40.12;101159.41;5064458;28;45255;-76
2021/07/19 10:58:48;;;;;;;;;11.75;11.00;;;;;28.02;40.36;101151.44;5082775;27;45373;-79
2021/07/19 11:01:26;;;;;;;;;11.25;9.50;;;;;28.05;39.88;101159.31;5082613;27;45597;-77
2021/07/19 11:03:53;;;;;;;;;10.00;9.00;;;;;28.07;40.16;101151.19;5081131;27;46053;-76
2021/07/19 11:06:37;;;;;;;;;12.75;11.50;;;;;28.05;40.08;101150.41;5080969;28;45411;-78
2021/07/19 11:09:07;;;;;;;;;11.00;10.75;;;;;28.04;40.57;101140.63;5082800;27;45507;-79